sensor_id;sensor_type;location;lat;lon;timestamp;P1;durP1;ratioP1;P2;durP2;ratioP2
22429;SDS011;11382;48.086;11.632;2022-12-05T00:02:30;22.08;;;11.70;;
22429;SDS011;11382;48.086;11.632;2022-12-05T00:04:58;18.48;;;10.63;;
22429;SDS011;11382;48.086;11.632;2022-12-05T00:07:27;18.13;;;10.55;;
22429;SDS011;11382;48.086;11.632;2022-12-05T00:09:57;20.63;;;10.57;;
22429;SDS011;11382;48.086;11.632;2022-12-05T00:12:27;19.90;;;11.88;;
22429;SDS011;11382;48.086;11.632;2022-12-05T00:14:58;21.70;;;11.45;;
22429;SDS011;11382;48.086;11.632;2022-12-05T00:17:27;19.60;;;11.65;;
22429;SDS011;11382;48.086;11.632;2022-12-05T00:19:55;19.77;;;11.30;;
22429;SDS011;11382;48.086;11.632;2022-12-05T00:22:24;19.73;;;11.70;;
22429;SDS011;11382;48.086;11.632;2022-12-05T00:24:52;20.58;;;11.95;;
22429;SDS011;11382;48.086;11.632;2022-12-05T00:27:21;21.38;;;12.35;;
22429;SDS011;11382;48.086;11.632;2022-12-05T00:29:49;19.17;;;10.77;;
22429;SDS011;11382;48.086;11.632;2022-12-05T00:32:18;19.70;;;11.18;;
22429;SDS011;11382;48.086;11.632;2022-12-05T00:34:47;19.63;;;11.40;;
22429;SDS011;11382;48.086;11.632;2022-12-05T00:37:15;20.17;;;11.13;;
22429;SDS011;11382;48.086;11.632;2022-12-05T00:39:46;19.92;;;11.77;;
22429;SDS011;11382;48.086;11.632;2022-12-05T00:42:14;20.75;;;11.57;;
22429;SDS011;11382;48.086;11.632;2022-12-05T00:44:44;19.45;;;11.50;;
22429;SDS011;11382;48.086;11.632;2022-12-05T00:47:14;21.50;;;11.15;;
22429;SDS011;11382;48.086;11.632;2022-12-05T00:49:46;18.60;;;10.85;;
22429;SDS011;11382;48.086;11.632;2022-12-05T00:52:18;21.55;;;11.25;;
22429;SDS011;11382;48.086;11.632;2022-12-05T00:54:47;21.23;;;12.23;;
22429;SDS011;11382;48.086;11.632;2022-12-05T00:57:16;20.33;;;11.65;;
22429;SDS011;11382;48.086;11.632;2022-12-05T00:59:44;20.38;;;10.95;;
22429;SDS011;11382;48.086;11.632;2022-12-05T01:02:12;19.30;;;11.48;;
22429;SDS011;11382;48.086;11.632;2022-12-05T01:04:41;18.63;;;11.18;;
22429;SDS011;11382;48.086;11.632;2022-12-05T01:07:11;18.58;;;10.48;;
22429;SDS011;11382;48.086;11.632;2022-12-05T01:09:39;23.88;;;12.70;;
22429;SDS011;11382;48.086;11.632;2022-12-05T01:12:08;24.58;;;12.65;;
22429;SDS011;11382;48.086;11.632;2022-12-05T01:14:37;21.42;;;11.73;;
22429;SDS011;11382;48.086;11.632;2022-12-05T01:17:06;21.67;;;11.52;;
22429;SDS011;11382;48.086;11.632;2022-12-05T01:19:35;22.67;;;12.13;;
22429;SDS011;11382;48.086;11.632;2022-12-05T01:22:04;23.17;;;12.68;;
22429;SDS011;11382;48.086;11.632;2022-12-05T01:24:34;23.52;;;12.82;;
22429;SDS011;11382;48.086;11.632;2022-12-05T01:27:02;21.80;;;12.00;;
22429;SDS011;11382;48.086;11.632;2022-12-05T01:29:33;25.77;;;12.80;;
22429;SDS011;11382;48.086;11.632;2022-12-05T01:32:02;26.50;;;12.73;;
22429;SDS011;11382;48.086;11.632;2022-12-05T01:34:31;25.13;;;12.35;;
22429;SDS011;11382;48.086;11.632;2022-12-05T01:37:00;23.67;;;12.38;;
22429;SDS011;11382;48.086;11.632;2022-12-05T01:39:28;23.00;;;12.52;;
22429;SDS011;11382;48.086;11.632;2022-12-05T01:42:00;32.30;;;13.27;;
22429;SDS011;11382;48.086;11.632;2022-12-05T01:47:30;23.83;;;12.98;;
22429;SDS011;11382;48.086;11.632;2022-12-05T01:52:32;30.27;;;13.70;;
22429;SDS011;11382;48.086;11.632;2022-12-05T01:55:04;24.10;;;13.50;;
22429;SDS011;11382;48.086;11.632;2022-12-05T01:57:37;23.05;;;12.88;;
22429;SDS011;11382;48.086;11.632;2022-12-05T02:00:08;25.17;;;12.23;;
22429;SDS011;11382;48.086;11.632;2022-12-05T02:02:39;16.30;;;8.65;;
22429;SDS011;11382;48.086;11.632;2022-12-05T02:05:12;22.48;;;13.13;;
22429;SDS011;11382;48.086;11.632;2022-12-05T02:07:43;23.40;;;13.55;;
22429;SDS011;11382;48.086;11.632;2022-12-05T02:10:13;24.88;;;13.80;;
22429;SDS011;11382;48.086;11.632;2022-12-05T02:12:44;26.80;;;14.57;;
22429;SDS011;11382;48.086;11.632;2022-12-05T02:15:27;27.02;;;13.50;;
22429;SDS011;11382;48.086;11.632;2022-12-05T02:18:08;27.55;;;14.68;;
22429;SDS011;11382;48.086;11.632;2022-12-05T02:20:54;24.92;;;13.75;;
22429;SDS011;11382;48.086;11.632;2022-12-05T02:23:50;27.75;;;15.02;;
22429;SDS011;11382;48.086;11.632;2022-12-05T02:26:58;26.92;;;14.38;;
22429;SDS011;11382;48.086;11.632;2022-12-05T02:29:54;30.77;;;14.65;;
22429;SDS011;11382;48.086;11.632;2022-12-05T02:32:31;33.28;;;16.77;;
22429;SDS011;11382;48.086;11.632;2022-12-05T02:35:07;31.10;;;15.90;;
22429;SDS011;11382;48.086;11.632;2022-12-05T02:37:43;32.60;;;16.08;;
22429;SDS011;11382;48.086;11.632;2022-12-05T02:40:20;32.33;;;16.45;;
22429;SDS011;11382;48.086;11.632;2022-12-05T02:42:54;37.13;;;17.60;;
22429;SDS011;11382;48.086;11.632;2022-12-05T02:45:29;31.13;;;17.17;;
22429;SDS011;11382;48.086;11.632;2022-12-05T02:48:04;47.53;;;18.77;;
22429;SDS011;11382;48.086;11.632;2022-12-05T02:50:34;38.63;;;18.65;;
22429;SDS011;11382;48.086;11.632;2022-12-05T02:53:07;35.80;;;18.67;;
22429;SDS011;11382;48.086;11.632;2022-12-05T02:55:38;32.80;;;17.98;;
22429;SDS011;11382;48.086;11.632;2022-12-05T02:58:10;31.52;;;15.90;;
22429;SDS011;11382;48.086;11.632;2022-12-05T03:00:45;34.95;;;18.63;;
22429;SDS011;11382;48.086;11.632;2022-12-05T03:03:17;36.55;;;17.60;;
22429;SDS011;11382;48.086;11.632;2022-12-05T03:05:56;36.42;;;18.70;;
22429;SDS011;11382;48.086;11.632;2022-12-05T03:08:28;36.03;;;18.10;;
22429;SDS011;11382;48.086;11.632;2022-12-05T03:11:00;37.65;;;19.15;;
22429;SDS011;11382;48.086;11.632;2022-12-05T03:13:32;33.30;;;18.20;;
22429;SDS011;11382;48.086;11.632;2022-12-05T03:16:10;35.25;;;19.33;;
22429;SDS011;11382;48.086;11.632;2022-12-05T03:18:46;39.45;;;19.17;;
22429;SDS011;11382;48.086;11.632;2022-12-05T03:21:19;37.10;;;18.60;;
22429;SDS011;11382;48.086;11.632;2022-12-05T03:23:53;31.63;;;18.20;;
22429;SDS011;11382;48.086;11.632;2022-12-05T03:26:35;38.58;;;20.25;;
22429;SDS011;11382;48.086;11.632;2022-12-05T03:29:21;38.70;;;19.25;;
22429;SDS011;11382;48.086;11.632;2022-12-05T03:31:58;41.33;;;20.67;;
22429;SDS011;11382;48.086;11.632;2022-12-05T03:34:41;36.35;;;18.60;;
22429;SDS011;11382;48.086;11.632;2022-12-05T03:37:18;34.60;;;18.40;;
22429;SDS011;11382;48.086;11.632;2022-12-05T03:39:56;39.25;;;19.50;;
22429;SDS011;11382;48.086;11.632;2022-12-05T03:42:33;40.55;;;18.73;;
22429;SDS011;11382;48.086;11.632;2022-12-05T03:45:06;38.70;;;19.80;;
22429;SDS011;11382;48.086;11.632;2022-12-05T03:47:43;36.95;;;19.42;;
22429;SDS011;11382;48.086;11.632;2022-12-05T03:50:17;38.95;;;18.83;;
22429;SDS011;11382;48.086;11.632;2022-12-05T03:52:49;36.67;;;19.05;;
22429;SDS011;11382;48.086;11.632;2022-12-05T03:55:44;37.70;;;17.98;;
22429;SDS011;11382;48.086;11.632;2022-12-05T03:58:16;36.30;;;19.20;;
22429;SDS011;11382;48.086;11.632;2022-12-05T04:00:49;41.08;;;19.10;;
22429;SDS011;11382;48.086;11.632;2022-12-05T04:03:23;36.63;;;18.40;;
22429;SDS011;11382;48.086;11.632;2022-12-05T04:06:08;35.10;;;17.75;;
22429;SDS011;11382;48.086;11.632;2022-12-05T04:08:44;36.47;;;18.08;;
22429;SDS011;11382;48.086;11.632;2022-12-05T04:11:21;35.20;;;18.45;;
22429;SDS011;11382;48.086;11.632;2022-12-05T04:13:58;34.25;;;17.75;;
22429;SDS011;11382;48.086;11.632;2022-12-05T04:16:29;33.08;;;17.33;;
22429;SDS011;11382;48.086;11.632;2022-12-05T04:19:24;34.08;;;17.50;;
22429;SDS011;11382;48.086;11.632;2022-12-05T04:22:15;32.97;;;16.60;;
22429;SDS011;11382;48.086;11.632;2022-12-05T04:24:45;31.00;;;16.98;;
22429;SDS011;11382;48.086;11.632;2022-12-05T04:27:35;33.35;;;17.85;;
22429;SDS011;11382;48.086;11.632;2022-12-05T04:30:10;32.60;;;17.52;;
22429;SDS011;11382;48.086;11.632;2022-12-05T04:32:43;31.27;;;16.17;;
22429;SDS011;11382;48.086;11.632;2022-12-05T04:35:16;30.92;;;16.13;;
22429;SDS011;11382;48.086;11.632;2022-12-05T04:37:50;29.40;;;15.63;;
22429;SDS011;11382;48.086;11.632;2022-12-05T04:40:25;28.90;;;16.30;;
22429;SDS011;11382;48.086;11.632;2022-12-05T04:42:58;27.30;;;14.50;;
22429;SDS011;11382;48.086;11.632;2022-12-05T04:45:33;24.45;;;13.85;;
22429;SDS011;11382;48.086;11.632;2022-12-05T04:48:05;23.75;;;13.52;;
22429;SDS011;11382;48.086;11.632;2022-12-05T04:50:41;26.70;;;14.27;;
22429;SDS011;11382;48.086;11.632;2022-12-05T04:53:14;25.33;;;13.63;;
22429;SDS011;11382;48.086;11.632;2022-12-05T04:55:45;24.88;;;13.68;;
22429;SDS011;11382;48.086;11.632;2022-12-05T04:58:17;22.70;;;13.27;;
22429;SDS011;11382;48.086;11.632;2022-12-05T05:00:49;25.17;;;13.18;;
22429;SDS011;11382;48.086;11.632;2022-12-05T05:05:53;23.98;;;13.18;;
22429;SDS011;11382;48.086;11.632;2022-12-05T05:08:24;24.80;;;13.68;;
22429;SDS011;11382;48.086;11.632;2022-12-05T05:10:57;22.30;;;12.77;;
22429;SDS011;11382;48.086;11.632;2022-12-05T05:13:33;26.88;;;13.77;;
22429;SDS011;11382;48.086;11.632;2022-12-05T05:16:01;21.73;;;13.02;;
22429;SDS011;11382;48.086;11.632;2022-12-05T05:18:30;23.95;;;12.77;;
22429;SDS011;11382;48.086;11.632;2022-12-05T05:21:00;25.13;;;13.32;;
22429;SDS011;11382;48.086;11.632;2022-12-05T05:23:28;26.02;;;13.40;;
22429;SDS011;11382;48.086;11.632;2022-12-05T05:25:56;23.98;;;12.00;;
22429;SDS011;11382;48.086;11.632;2022-12-05T05:28:25;22.58;;;12.13;;
22429;SDS011;11382;48.086;11.632;2022-12-05T05:30:58;23.88;;;13.55;;
22429;SDS011;11382;48.086;11.632;2022-12-05T05:33:30;25.52;;;13.15;;
22429;SDS011;11382;48.086;11.632;2022-12-05T05:36:02;25.92;;;13.95;;
22429;SDS011;11382;48.086;11.632;2022-12-05T05:41:05;25.10;;;12.95;;
22429;SDS011;11382;48.086;11.632;2022-12-05T05:43:42;23.27;;;13.27;;
22429;SDS011;11382;48.086;11.632;2022-12-05T05:46:15;23.70;;;13.10;;
22429;SDS011;11382;48.086;11.632;2022-12-05T05:48:59;26.83;;;13.60;;
22429;SDS011;11382;48.086;11.632;2022-12-05T05:51:30;23.88;;;12.73;;
22429;SDS011;11382;48.086;11.632;2022-12-05T05:53:59;25.92;;;12.48;;
22429;SDS011;11382;48.086;11.632;2022-12-05T05:56:27;22.83;;;13.05;;
22429;SDS011;11382;48.086;11.632;2022-12-05T05:58:57;24.98;;;12.60;;
22429;SDS011;11382;48.086;11.632;2022-12-05T06:01:26;25.15;;;12.07;;
22429;SDS011;11382;48.086;11.632;2022-12-05T06:03:55;26.05;;;13.18;;
22429;SDS011;11382;48.086;11.632;2022-12-05T06:06:26;23.92;;;12.27;;
22429;SDS011;11382;48.086;11.632;2022-12-05T06:08:55;25.13;;;12.73;;
22429;SDS011;11382;48.086;11.632;2022-12-05T06:11:24;22.10;;;12.35;;
22429;SDS011;11382;48.086;11.632;2022-12-05T06:13:54;23.52;;;12.73;;
22429;SDS011;11382;48.086;11.632;2022-12-05T06:16:23;25.15;;;12.60;;
22429;SDS011;11382;48.086;11.632;2022-12-05T06:18:51;23.05;;;12.23;;
22429;SDS011;11382;48.086;11.632;2022-12-05T06:21:22;24.25;;;12.60;;
22429;SDS011;11382;48.086;11.632;2022-12-05T06:23:51;23.98;;;13.45;;
22429;SDS011;11382;48.086;11.632;2022-12-05T06:26:21;22.10;;;12.73;;
22429;SDS011;11382;48.086;11.632;2022-12-05T06:28:49;22.08;;;11.68;;
22429;SDS011;11382;48.086;11.632;2022-12-05T06:31:19;21.05;;;12.25;;
22429;SDS011;11382;48.086;11.632;2022-12-05T06:33:49;23.50;;;12.82;;
22429;SDS011;11382;48.086;11.632;2022-12-05T06:36:18;24.73;;;12.93;;
22429;SDS011;11382;48.086;11.632;2022-12-05T06:38:47;24.00;;;11.75;;
22429;SDS011;11382;48.086;11.632;2022-12-05T06:41:20;21.10;;;11.50;;
22429;SDS011;11382;48.086;11.632;2022-12-05T06:43:51;22.08;;;12.18;;
22429;SDS011;11382;48.086;11.632;2022-12-05T06:46:28;20.77;;;11.60;;
22429;SDS011;11382;48.086;11.632;2022-12-05T06:48:56;20.40;;;10.77;;
22429;SDS011;11382;48.086;11.632;2022-12-05T06:51:25;22.23;;;12.43;;
22429;SDS011;11382;48.086;11.632;2022-12-05T06:53:54;18.95;;;11.45;;
22429;SDS011;11382;48.086;11.632;2022-12-05T06:56:24;18.13;;;10.90;;
22429;SDS011;11382;48.086;11.632;2022-12-05T06:58:52;18.08;;;9.90;;
22429;SDS011;11382;48.086;11.632;2022-12-05T07:01:21;18.88;;;10.93;;
22429;SDS011;11382;48.086;11.632;2022-12-05T07:04:08;19.90;;;10.95;;
22429;SDS011;11382;48.086;11.632;2022-12-05T07:06:38;20.25;;;10.55;;
22429;SDS011;11382;48.086;11.632;2022-12-05T07:09:14;18.33;;;10.18;;
22429;SDS011;11382;48.086;11.632;2022-12-05T07:11:46;20.38;;;10.55;;
22429;SDS011;11382;48.086;11.632;2022-12-05T07:14:14;16.60;;;9.30;;
22429;SDS011;11382;48.086;11.632;2022-12-05T07:17:03;18.40;;;10.77;;
22429;SDS011;11382;48.086;11.632;2022-12-05T07:19:32;19.48;;;9.88;;
22429;SDS011;11382;48.086;11.632;2022-12-05T07:22:00;17.73;;;10.30;;
22429;SDS011;11382;48.086;11.632;2022-12-05T07:24:29;16.58;;;9.90;;
22429;SDS011;11382;48.086;11.632;2022-12-05T07:27:00;21.30;;;10.77;;
22429;SDS011;11382;48.086;11.632;2022-12-05T07:29:29;18.27;;;10.35;;
22429;SDS011;11382;48.086;11.632;2022-12-05T07:31:57;16.27;;;10.10;;
22429;SDS011;11382;48.086;11.632;2022-12-05T07:34:27;16.80;;;9.55;;
22429;SDS011;11382;48.086;11.632;2022-12-05T07:36:55;15.38;;;8.82;;
22429;SDS011;11382;48.086;11.632;2022-12-05T07:39:23;18.30;;;9.73;;
22429;SDS011;11382;48.086;11.632;2022-12-05T07:41:53;15.27;;;8.90;;
22429;SDS011;11382;48.086;11.632;2022-12-05T07:44:22;16.80;;;9.80;;
22429;SDS011;11382;48.086;11.632;2022-12-05T07:46:50;17.10;;;10.35;;
22429;SDS011;11382;48.086;11.632;2022-12-05T07:49:18;15.20;;;8.82;;
22429;SDS011;11382;48.086;11.632;2022-12-05T07:51:47;15.05;;;8.88;;
22429;SDS011;11382;48.086;11.632;2022-12-05T07:54:15;16.02;;;9.40;;
22429;SDS011;11382;48.086;11.632;2022-12-05T07:56:43;15.60;;;8.95;;
22429;SDS011;11382;48.086;11.632;2022-12-05T07:59:13;17.58;;;9.52;;
22429;SDS011;11382;48.086;11.632;2022-12-05T08:01:43;17.60;;;9.93;;
22429;SDS011;11382;48.086;11.632;2022-12-05T08:04:13;17.65;;;9.52;;
22429;SDS011;11382;48.086;11.632;2022-12-05T08:06:41;18.17;;;9.15;;
22429;SDS011;11382;48.086;11.632;2022-12-05T08:09:10;15.52;;;9.50;;
22429;SDS011;11382;48.086;11.632;2022-12-05T08:11:38;16.92;;;9.02;;
22429;SDS011;11382;48.086;11.632;2022-12-05T08:14:07;16.63;;;9.10;;
22429;SDS011;11382;48.086;11.632;2022-12-05T08:16:39;17.42;;;9.52;;
22429;SDS011;11382;48.086;11.632;2022-12-05T08:19:10;16.77;;;9.82;;
22429;SDS011;11382;48.086;11.632;2022-12-05T08:21:39;17.27;;;8.77;;
22429;SDS011;11382;48.086;11.632;2022-12-05T08:24:08;15.63;;;9.45;;
22429;SDS011;11382;48.086;11.632;2022-12-05T08:26:37;15.80;;;9.90;;
22429;SDS011;11382;48.086;11.632;2022-12-05T08:29:07;15.45;;;9.32;;
22429;SDS011;11382;48.086;11.632;2022-12-05T08:31:38;16.33;;;10.00;;
22429;SDS011;11382;48.086;11.632;2022-12-05T08:34:10;18.75;;;10.32;;
22429;SDS011;11382;48.086;11.632;2022-12-05T08:36:43;20.50;;;10.93;;
22429;SDS011;11382;48.086;11.632;2022-12-05T08:39:16;16.52;;;10.05;;
22429;SDS011;11382;48.086;11.632;2022-12-05T08:41:46;14.73;;;8.65;;
22429;SDS011;11382;48.086;11.632;2022-12-05T08:44:15;18.08;;;9.85;;
22429;SDS011;11382;48.086;11.632;2022-12-05T08:46:47;18.52;;;9.10;;
22429;SDS011;11382;48.086;11.632;2022-12-05T08:49:21;17.38;;;10.18;;
22429;SDS011;11382;48.086;11.632;2022-12-05T08:51:49;17.10;;;9.07;;
22429;SDS011;11382;48.086;11.632;2022-12-05T08:54:18;18.60;;;10.30;;
22429;SDS011;11382;48.086;11.632;2022-12-05T08:56:49;20.13;;;11.32;;
22429;SDS011;11382;48.086;11.632;2022-12-05T08:59:19;22.17;;;9.75;;
22429;SDS011;11382;48.086;11.632;2022-12-05T09:01:48;15.40;;;8.43;;
22429;SDS011;11382;48.086;11.632;2022-12-05T09:04:17;19.38;;;10.63;;
22429;SDS011;11382;48.086;11.632;2022-12-05T09:06:51;15.88;;;9.65;;
22429;SDS011;11382;48.086;11.632;2022-12-05T09:09:19;16.23;;;9.57;;
22429;SDS011;11382;48.086;11.632;2022-12-05T09:11:49;16.15;;;9.43;;
22429;SDS011;11382;48.086;11.632;2022-12-05T09:14:17;16.30;;;10.30;;
22429;SDS011;11382;48.086;11.632;2022-12-05T09:16:46;16.88;;;10.25;;
22429;SDS011;11382;48.086;11.632;2022-12-05T09:19:17;20.52;;;10.50;;
22429;SDS011;11382;48.086;11.632;2022-12-05T09:21:50;20.23;;;10.68;;
22429;SDS011;11382;48.086;11.632;2022-12-05T09:24:22;20.17;;;9.45;;
22429;SDS011;11382;48.086;11.632;2022-12-05T09:26:51;16.83;;;9.65;;
22429;SDS011;11382;48.086;11.632;2022-12-05T09:29:21;15.93;;;8.98;;
22429;SDS011;11382;48.086;11.632;2022-12-05T09:31:52;17.20;;;9.77;;
22429;SDS011;11382;48.086;11.632;2022-12-05T09:34:21;16.55;;;9.65;;
22429;SDS011;11382;48.086;11.632;2022-12-05T09:36:52;15.77;;;8.98;;
22429;SDS011;11382;48.086;11.632;2022-12-05T09:39:43;19.38;;;9.15;;
22429;SDS011;11382;48.086;11.632;2022-12-05T09:45:10;17.25;;;9.80;;
22429;SDS011;11382;48.086;11.632;2022-12-05T09:47:52;18.77;;;9.05;;
22429;SDS011;11382;48.086;11.632;2022-12-05T09:50:33;18.83;;;9.82;;
22429;SDS011;11382;48.086;11.632;2022-12-05T09:53:09;18.55;;;9.50;;
22429;SDS011;11382;48.086;11.632;2022-12-05T09:55:44;17.80;;;8.57;;
22429;SDS011;11382;48.086;11.632;2022-12-05T10:01:21;15.95;;;8.75;;
22429;SDS011;11382;48.086;11.632;2022-12-05T10:04:11;15.75;;;9.02;;
22429;SDS011;11382;48.086;11.632;2022-12-05T10:06:49;16.60;;;9.05;;
22429;SDS011;11382;48.086;11.632;2022-12-05T10:09:35;15.30;;;8.95;;
22429;SDS011;11382;48.086;11.632;2022-12-05T10:12:17;17.05;;;9.23;;
22429;SDS011;11382;48.086;11.632;2022-12-05T10:14:58;15.27;;;8.85;;
22429;SDS011;11382;48.086;11.632;2022-12-05T10:17:31;16.92;;;9.63;;
22429;SDS011;11382;48.086;11.632;2022-12-05T10:20:02;17.80;;;8.85;;
22429;SDS011;11382;48.086;11.632;2022-12-05T10:22:38;12.60;;;8.68;;
22429;SDS011;11382;48.086;11.632;2022-12-05T10:27:41;17.15;;;9.57;;
22429;SDS011;11382;48.086;11.632;2022-12-05T10:30:14;19.92;;;9.75;;
22429;SDS011;11382;48.086;11.632;2022-12-05T10:32:46;12.60;;;8.20;;
22429;SDS011;11382;48.086;11.632;2022-12-05T10:35:19;14.32;;;8.98;;
22429;SDS011;11382;48.086;11.632;2022-12-05T10:37:49;15.30;;;8.80;;
22429;SDS011;11382;48.086;11.632;2022-12-05T10:40:20;16.65;;;9.30;;
22429;SDS011;11382;48.086;11.632;2022-12-05T10:42:50;14.15;;;9.15;;
22429;SDS011;11382;48.086;11.632;2022-12-05T10:45:21;12.73;;;8.13;;
22429;SDS011;11382;48.086;11.632;2022-12-05T10:47:52;13.60;;;8.30;;
22429;SDS011;11382;48.086;11.632;2022-12-05T10:50:23;14.23;;;8.35;;
22429;SDS011;11382;48.086;11.632;2022-12-05T10:52:55;14.95;;;8.38;;
22429;SDS011;11382;48.086;11.632;2022-12-05T10:55:27;14.60;;;8.70;;
22429;SDS011;11382;48.086;11.632;2022-12-05T10:58:08;13.82;;;8.43;;
22429;SDS011;11382;48.086;11.632;2022-12-05T11:00:43;14.40;;;8.85;;
22429;SDS011;11382;48.086;11.632;2022-12-05T11:03:20;14.65;;;8.73;;
22429;SDS011;11382;48.086;11.632;2022-12-05T11:05:54;14.65;;;8.80;;
22429;SDS011;11382;48.086;11.632;2022-12-05T11:08:24;14.85;;;9.00;;
22429;SDS011;11382;48.086;11.632;2022-12-05T11:11:22;13.95;;;8.45;;
22429;SDS011;11382;48.086;11.632;2022-12-05T11:13:55;11.98;;;7.88;;
22429;SDS011;11382;48.086;11.632;2022-12-05T11:16:26;14.18;;;7.93;;
22429;SDS011;11382;48.086;11.632;2022-12-05T11:18:59;14.35;;;8.18;;
22429;SDS011;11382;48.086;11.632;2022-12-05T11:21:49;13.55;;;8.00;;
22429;SDS011;11382;48.086;11.632;2022-12-05T11:24:21;11.63;;;7.53;;
22429;SDS011;11382;48.086;11.632;2022-12-05T11:26:55;11.32;;;7.60;;
22429;SDS011;11382;48.086;11.632;2022-12-05T11:29:29;12.23;;;7.13;;
22429;SDS011;11382;48.086;11.632;2022-12-05T11:31:59;13.02;;;8.07;;
22429;SDS011;11382;48.086;11.632;2022-12-05T11:34:29;13.05;;;8.13;;
22429;SDS011;11382;48.086;11.632;2022-12-05T11:39:32;12.25;;;7.63;;
22429;SDS011;11382;48.086;11.632;2022-12-05T11:42:14;11.73;;;7.82;;
22429;SDS011;11382;48.086;11.632;2022-12-05T11:45:05;14.15;;;8.30;;
22429;SDS011;11382;48.086;11.632;2022-12-05T11:47:55;14.93;;;7.93;;
22429;SDS011;11382;48.086;11.632;2022-12-05T11:50:40;12.55;;;7.93;;
22429;SDS011;11382;48.086;11.632;2022-12-05T11:53:24;12.30;;;7.85;;
22429;SDS011;11382;48.086;11.632;2022-12-05T11:56:05;13.20;;;8.05;;
22429;SDS011;11382;48.086;11.632;2022-12-05T11:58:49;12.35;;;7.97;;
22429;SDS011;11382;48.086;11.632;2022-12-05T12:01:30;13.57;;;8.45;;
22429;SDS011;11382;48.086;11.632;2022-12-05T12:04:14;11.40;;;7.75;;
22429;SDS011;11382;48.086;11.632;2022-12-05T12:07:15;12.90;;;8.00;;
22429;SDS011;11382;48.086;11.632;2022-12-05T12:09:55;11.82;;;7.28;;
22429;SDS011;11382;48.086;11.632;2022-12-05T12:12:36;13.00;;;7.72;;
22429;SDS011;11382;48.086;11.632;2022-12-05T12:15:26;12.55;;;7.38;;
22429;SDS011;11382;48.086;11.632;2022-12-05T12:18:14;13.63;;;7.35;;
22429;SDS011;11382;48.086;11.632;2022-12-05T12:20:54;12.85;;;6.95;;
22429;SDS011;11382;48.086;11.632;2022-12-05T12:23:37;10.02;;;6.40;;
22429;SDS011;11382;48.086;11.632;2022-12-05T12:26:15;9.38;;;6.68;;
22429;SDS011;11382;48.086;11.632;2022-12-05T12:28:53;9.23;;;6.35;;
22429;SDS011;11382;48.086;11.632;2022-12-05T12:31:39;10.80;;;7.05;;
22429;SDS011;11382;48.086;11.632;2022-12-05T12:34:25;10.05;;;6.82;;
22429;SDS011;11382;48.086;11.632;2022-12-05T12:37:07;9.30;;;5.93;;
22429;SDS011;11382;48.086;11.632;2022-12-05T12:39:43;9.95;;;6.18;;
22429;SDS011;11382;48.086;11.632;2022-12-05T12:42:19;8.75;;;5.60;;
22429;SDS011;11382;48.086;11.632;2022-12-05T12:45:02;12.07;;;7.10;;
22429;SDS011;11382;48.086;11.632;2022-12-05T12:47:47;8.65;;;5.45;;
22429;SDS011;11382;48.086;11.632;2022-12-05T12:50:27;8.05;;;4.97;;
22429;SDS011;11382;48.086;11.632;2022-12-05T12:55:58;7.53;;;4.82;;
22429;SDS011;11382;48.086;11.632;2022-12-05T12:58:37;10.15;;;5.60;;
22429;SDS011;11382;48.086;11.632;2022-12-05T13:01:15;6.55;;;4.60;;
22429;SDS011;11382;48.086;11.632;2022-12-05T13:03:57;7.70;;;4.77;;
22429;SDS011;11382;48.086;11.632;2022-12-05T13:06:33;8.20;;;4.78;;
22429;SDS011;11382;48.086;11.632;2022-12-05T13:09:08;7.40;;;4.90;;
22429;SDS011;11382;48.086;11.632;2022-12-05T13:11:41;7.05;;;4.70;;
22429;SDS011;11382;48.086;11.632;2022-12-05T13:14:12;8.10;;;4.88;;
22429;SDS011;11382;48.086;11.632;2022-12-05T13:16:46;6.70;;;4.85;;
22429;SDS011;11382;48.086;11.632;2022-12-05T13:21:50;7.75;;;4.78;;
22429;SDS011;11382;48.086;11.632;2022-12-05T13:24:20;6.72;;;4.78;;
22429;SDS011;11382;48.086;11.632;2022-12-05T13:26:53;6.22;;;4.50;;
22429;SDS011;11382;48.086;11.632;2022-12-05T13:29:29;6.90;;;4.35;;
22429;SDS011;11382;48.086;11.632;2022-12-05T13:32:00;5.78;;;4.05;;
22429;SDS011;11382;48.086;11.632;2022-12-05T13:34:40;7.97;;;5.00;;
22429;SDS011;11382;48.086;11.632;2022-12-05T13:37:20;6.28;;;4.50;;
22429;SDS011;11382;48.086;11.632;2022-12-05T13:43:12;6.35;;;3.97;;
22429;SDS011;11382;48.086;11.632;2022-12-05T13:45:52;6.90;;;4.10;;
22429;SDS011;11382;48.086;11.632;2022-12-05T13:48:29;4.13;;;2.97;;
22429;SDS011;11382;48.086;11.632;2022-12-05T13:51:02;4.13;;;3.05;;
22429;SDS011;11382;48.086;11.632;2022-12-05T13:53:35;5.82;;;3.13;;
22429;SDS011;11382;48.086;11.632;2022-12-05T13:56:22;5.57;;;2.83;;
22429;SDS011;11382;48.086;11.632;2022-12-05T13:58:53;3.58;;;2.45;;
22429;SDS011;11382;48.086;11.632;2022-12-05T14:01:44;4.43;;;3.00;;
22429;SDS011;11382;48.086;11.632;2022-12-05T14:04:42;4.32;;;2.78;;
22429;SDS011;11382;48.086;11.632;2022-12-05T14:10:12;5.45;;;3.17;;
22429;SDS011;11382;48.086;11.632;2022-12-05T14:12:43;5.68;;;3.22;;
22429;SDS011;11382;48.086;11.632;2022-12-05T14:15:23;5.00;;;3.10;;
22429;SDS011;11382;48.086;11.632;2022-12-05T14:18:04;4.80;;;3.00;;
22429;SDS011;11382;48.086;11.632;2022-12-05T14:20:52;4.13;;;2.92;;
22429;SDS011;11382;48.086;11.632;2022-12-05T14:23:40;4.43;;;3.03;;
22429;SDS011;11382;48.086;11.632;2022-12-05T14:26:26;4.45;;;3.10;;
22429;SDS011;11382;48.086;11.632;2022-12-05T14:29:18;6.20;;;3.22;;
22429;SDS011;11382;48.086;11.632;2022-12-05T14:32:05;3.75;;;2.80;;
22429;SDS011;11382;48.086;11.632;2022-12-05T14:34:53;4.60;;;3.08;;
22429;SDS011;11382;48.086;11.632;2022-12-05T14:37:25;4.63;;;3.15;;
22429;SDS011;11382;48.086;11.632;2022-12-05T14:39:57;5.55;;;3.80;;
22429;SDS011;11382;48.086;11.632;2022-12-05T14:42:35;4.10;;;3.13;;
22429;SDS011;11382;48.086;11.632;2022-12-05T14:45:22;5.15;;;3.50;;
22429;SDS011;11382;48.086;11.632;2022-12-05T14:47:54;5.47;;;3.95;;
22429;SDS011;11382;48.086;11.632;2022-12-05T14:50:53;6.53;;;3.35;;
22429;SDS011;11382;48.086;11.632;2022-12-05T14:53:25;4.03;;;3.00;;
22429;SDS011;11382;48.086;11.632;2022-12-05T14:56:04;4.07;;;3.22;;
22429;SDS011;11382;48.086;11.632;2022-12-05T14:58:43;4.90;;;3.47;;
22429;SDS011;11382;48.086;11.632;2022-12-05T15:01:16;5.57;;;2.95;;
22429;SDS011;11382;48.086;11.632;2022-12-05T15:06:52;4.60;;;3.03;;
22429;SDS011;11382;48.086;11.632;2022-12-05T15:09:28;5.50;;;3.78;;
22429;SDS011;11382;48.086;11.632;2022-12-05T15:12:05;5.78;;;3.47;;
22429;SDS011;11382;48.086;11.632;2022-12-05T15:14:42;5.63;;;3.47;;
22429;SDS011;11382;48.086;11.632;2022-12-05T15:17:21;4.15;;;3.05;;
22429;SDS011;11382;48.086;11.632;2022-12-05T15:19:55;6.85;;;4.00;;
22429;SDS011;11382;48.086;11.632;2022-12-05T15:22:29;5.03;;;3.50;;
22429;SDS011;11382;48.086;11.632;2022-12-05T15:25:24;3.60;;;2.78;;
22429;SDS011;11382;48.086;11.632;2022-12-05T15:27:56;5.93;;;3.90;;
22429;SDS011;11382;48.086;11.632;2022-12-05T15:30:29;4.32;;;3.55;;
22429;SDS011;11382;48.086;11.632;2022-12-05T15:33:01;5.00;;;3.72;;
22429;SDS011;11382;48.086;11.632;2022-12-05T15:35:30;6.60;;;3.58;;
22429;SDS011;11382;48.086;11.632;2022-12-05T15:38:01;4.93;;;3.35;;